sensor_id;sensor_type;location;lat;lon;timestamp;pressure;altitude;pressure_sealevel;temperature;humidity
57048;BME280;42934;54.294;18.598;2023-04-01T00:00:21;99005.13;;;5.66;91.75
57048;BME280;42934;54.294;18.598;2023-04-01T00:03:10;99006.91;;;5.64;92.27
57048;BME280;42934;54.294;18.598;2023-04-01T00:05:40;99013.88;;;5.63;91.60
57048;BME280;42934;54.294;18.598;2023-04-01T00:08:11;99003.63;;;5.59;91.03
57048;BME280;42934;54.294;18.598;2023-04-01T00:10:40;99005.09;;;5.44;91.44
57048;BME280;42934;54.294;18.598;2023-04-01T00:13:10;99006.72;;;5.46;91.76
57048;BME280;42934;54.294;18.598;2023-04-01T00:15:41;99001.47;;;5.48;90.96
57048;BME280;42934;54.294;18.598;2023-04-01T00:18:11;99011.31;;;5.40;91.76
57048;BME280;42934;54.294;18.598;2023-04-01T00:20:44;99013.44;;;5.30;91.35
57048;BME280;42934;54.294;18.598;2023-04-01T00:23:16;99020.16;;;5.12;91.93
57048;BME280;42934;54.294;18.598;2023-04-01T00:25:45;99018.00;;;5.00;92.50
57048;BME280;42934;54.294;18.598;2023-04-01T00:28:16;99014.66;;;5.20;91.48
57048;BME280;42934;54.294;18.598;2023-04-01T00:30:46;99023.72;;;5.10;91.33
57048;BME280;42934;54.294;18.598;2023-04-01T00:33:16;99011.41;;;5.15;91.27
57048;BME280;42934;54.294;18.598;2023-04-01T00:35:45;99020.78;;;5.19;91.39
57048;BME280;42934;54.294;18.598;2023-04-01T00:38:16;99020.16;;;5.12;91.24
57048;BME280;42934;54.294;18.598;2023-04-01T00:40:46;99023.16;;;5.01;91.47
57048;BME280;42934;54.294;18.598;2023-04-01T00:43:17;99024.50;;;4.88;92.63
57048;BME280;42934;54.294;18.598;2023-04-01T00:45:49;99016.69;;;4.88;92.20
57048;BME280;42934;54.294;18.598;2023-04-01T00:48:21;99017.91;;;5.03;91.22
57048;BME280;42934;54.294;18.598;2023-04-01T00:50:56;99014.75;;;4.93;91.87
57048;BME280;42934;54.294;18.598;2023-04-01T00:53:29;99016.38;;;4.97;91.31
57048;BME280;42934;54.294;18.598;2023-04-01T00:56:03;99016.63;;;4.90;91.28
57048;BME280;42934;54.294;18.598;2023-04-01T00:58:36;99016.16;;;4.78;91.63
57048;BME280;42934;54.294;18.598;2023-04-01T01:01:08;99008.44;;;4.77;92.02
57048;BME280;42934;54.294;18.598;2023-04-01T01:03:38;99012.59;;;4.81;91.55
57048;BME280;42934;54.294;18.598;2023-04-01T01:06:11;99008.31;;;4.80;92.18
57048;BME280;42934;54.294;18.598;2023-04-01T01:09:06;99005.66;;;4.82;91.83
57048;BME280;42934;54.294;18.598;2023-04-01T01:11:42;99006.34;;;4.87;92.01
57048;BME280;42934;54.294;18.598;2023-04-01T01:14:20;99011.81;;;4.79;91.74
57048;BME280;42934;54.294;18.598;2023-04-01T01:16:57;99015.00;;;4.87;91.09
57048;BME280;42934;54.294;18.598;2023-04-01T01:22:40;99024.69;;;4.82;91.07
57048;BME280;42934;54.294;18.598;2023-04-01T01:25:25;99016.06;;;4.82;91.56
57048;BME280;42934;54.294;18.598;2023-04-01T01:28:14;99024.91;;;4.76;91.67
57048;BME280;42934;54.294;18.598;2023-04-01T01:30:50;99029.84;;;4.84;91.67
57048;BME280;42934;54.294;18.598;2023-04-01T01:33:41;99027.75;;;4.93;91.46
57048;BME280;42934;54.294;18.598;2023-04-01T01:36:16;99026.34;;;4.85;91.63
57048;BME280;42934;54.294;18.598;2023-04-01T01:38:49;99028.84;;;4.88;91.92
57048;BME280;42934;54.294;18.598;2023-04-01T01:41:20;99026.22;;;4.88;92.44
57048;BME280;42934;54.294;18.598;2023-04-01T01:43:54;99030.66;;;4.86;91.89
57048;BME280;42934;54.294;18.598;2023-04-01T01:46:27;99039.94;;;4.93;91.45
57048;BME280;42934;54.294;18.598;2023-04-01T01:48:58;99038.59;;;4.81;92.01
57048;BME280;42934;54.294;18.598;2023-04-01T01:51:30;99036.13;;;4.78;92.31
57048;BME280;42934;54.294;18.598;2023-04-01T01:54:02;99031.06;;;4.73;93.41
57048;BME280;42934;54.294;18.598;2023-04-01T01:56:35;99025.34;;;4.89;91.91
57048;BME280;42934;54.294;18.598;2023-04-01T01:59:08;99024.44;;;4.90;92.04
57048;BME280;42934;54.294;18.598;2023-04-01T02:01:42;99031.50;;;4.86;92.31
57048;BME280;42934;54.294;18.598;2023-04-01T02:04:15;99030.06;;;4.77;92.09
57048;BME280;42934;54.294;18.598;2023-04-01T02:06:52;99032.25;;;4.90;91.76
57048;BME280;42934;54.294;18.598;2023-04-01T02:09:22;99035.88;;;4.86;91.21
57048;BME280;42934;54.294;18.598;2023-04-01T02:11:54;99033.47;;;4.80;91.93
57048;BME280;42934;54.294;18.598;2023-04-01T02:14:27;99037.13;;;4.74;91.91
57048;BME280;42934;54.294;18.598;2023-04-01T02:17:02;99036.84;;;4.82;91.81
57048;BME280;42934;54.294;18.598;2023-04-01T02:19:36;99036.84;;;4.82;91.40
57048;BME280;42934;54.294;18.598;2023-04-01T02:22:11;99041.00;;;4.87;91.56
57048;BME280;42934;54.294;18.598;2023-04-01T02:24:42;99034.47;;;4.75;92.06
57048;BME280;42934;54.294;18.598;2023-04-01T02:27:13;99052.19;;;4.64;92.18
57048;BME280;42934;54.294;18.598;2023-04-01T02:29:43;99044.72;;;4.80;91.68
57048;BME280;42934;54.294;18.598;2023-04-01T02:32:13;99043.00;;;4.79;91.57
57048;BME280;42934;54.294;18.598;2023-04-01T02:34:44;99047.66;;;4.71;91.78
57048;BME280;42934;54.294;18.598;2023-04-01T02:37:15;99040.47;;;4.77;92.22
57048;BME280;42934;54.294;18.598;2023-04-01T02:39:44;99042.16;;;4.78;92.05
57048;BME280;42934;54.294;18.598;2023-04-01T02:42:14;99049.13;;;4.78;91.29
57048;BME280;42934;54.294;18.598;2023-04-01T02:44:43;99051.81;;;4.75;91.04
57048;BME280;42934;54.294;18.598;2023-04-01T02:47:13;99057.16;;;4.70;91.86
57048;BME280;42934;54.294;18.598;2023-04-01T02:49:42;99053.72;;;4.70;91.26
57048;BME280;42934;54.294;18.598;2023-04-01T02:52:11;99061.50;;;4.71;91.31
57048;BME280;42934;54.294;18.598;2023-04-01T02:54:42;99062.22;;;4.75;91.29
57048;BME280;42934;54.294;18.598;2023-04-01T02:57:11;99066.63;;;4.73;91.30
57048;BME280;42934;54.294;18.598;2023-04-01T02:59:40;99064.13;;;4.70;91.05
57048;BME280;42934;54.294;18.598;2023-04-01T03:02:10;99069.44;;;4.67;91.00
57048;BME280;42934;54.294;18.598;2023-04-01T03:04:39;99058.19;;;4.66;91.31
57048;BME280;42934;54.294;18.598;2023-04-01T03:07:09;99063.50;;;4.63;91.84
57048;BME280;42934;54.294;18.598;2023-04-01T03:09:40;99070.25;;;4.69;91.82
57048;BME280;42934;54.294;18.598;2023-04-01T03:12:10;99072.03;;;4.67;91.73
57048;BME280;42934;54.294;18.598;2023-04-01T03:14:47;99065.94;;;4.68;91.63
57048;BME280;42934;54.294;18.598;2023-04-01T03:17:17;99067.69;;;4.67;91.66
57048;BME280;42934;54.294;18.598;2023-04-01T03:19:47;99074.91;;;4.59;92.06
57048;BME280;42934;54.294;18.598;2023-04-01T03:22:16;99077.34;;;4.64;92.17
57048;BME280;42934;54.294;18.598;2023-04-01T03:24:50;99078.94;;;4.68;91.26
57048;BME280;42934;54.294;18.598;2023-04-01T03:27:19;99088.47;;;4.67;91.20
57048;BME280;42934;54.294;18.598;2023-04-01T03:29:48;99082.59;;;4.62;91.65
57048;BME280;42934;54.294;18.598;2023-04-01T03:32:18;99082.00;;;4.54;92.19
57048;BME280;42934;54.294;18.598;2023-04-01T03:34:47;99084.50;;;4.57;92.15
57048;BME280;42934;54.294;18.598;2023-04-01T03:37:17;99091.97;;;4.66;91.45
57048;BME280;42934;54.294;18.598;2023-04-01T03:39:46;99082.53;;;4.64;91.59
57048;BME280;42934;54.294;18.598;2023-04-01T03:42:17;99083.38;;;4.64;91.55
57048;BME280;42934;54.294;18.598;2023-04-01T03:44:46;99080.66;;;4.67;91.56
57048;BME280;42934;54.294;18.598;2023-04-01T03:47:15;99079.84;;;4.67;91.35
57048;BME280;42934;54.294;18.598;2023-04-01T03:49:44;99075.66;;;4.63;91.60
57048;BME280;42934;54.294;18.598;2023-04-01T03:52:14;99079.09;;;4.63;91.82
57048;BME280;42934;54.294;18.598;2023-04-01T03:54:43;99083.38;;;4.64;92.13
57048;BME280;42934;54.294;18.598;2023-04-01T03:57:13;99080.09;;;4.59;91.85
57048;BME280;42934;54.294;18.598;2023-04-01T03:59:43;99079.31;;;4.57;91.58
57048;BME280;42934;54.294;18.598;2023-04-01T04:02:13;99086.16;;;4.60;91.63
57048;BME280;42934;54.294;18.598;2023-04-01T04:04:43;99084.91;;;4.45;92.95
57048;BME280;42934;54.294;18.598;2023-04-01T04:07:12;99091.59;;;4.52;93.14
57048;BME280;42934;54.294;18.598;2023-04-01T04:09:59;99088.03;;;4.54;92.54
57048;BME280;42934;54.294;18.598;2023-04-01T04:12:29;99102.84;;;4.52;92.32
57048;BME280;42934;54.294;18.598;2023-04-01T04:15:00;99098.19;;;4.62;92.01
57048;BME280;42934;54.294;18.598;2023-04-01T04:17:30;99098.09;;;4.65;92.11
57048;BME280;42934;54.294;18.598;2023-04-01T04:19:59;99106.75;;;4.66;92.18
57048;BME280;42934;54.294;18.598;2023-04-01T04:22:28;99103.28;;;4.65;92.10
57048;BME280;42934;54.294;18.598;2023-04-01T04:25:03;99099.78;;;4.66;91.45
57048;BME280;42934;54.294;18.598;2023-04-01T04:27:32;99100.28;;;4.51;92.44
57048;BME280;42934;54.294;18.598;2023-04-01T04:30:09;99104.28;;;4.61;92.15
57048;BME280;42934;54.294;18.598;2023-04-01T04:32:40;99099.47;;;4.50;92.35
57048;BME280;42934;54.294;18.598;2023-04-01T04:35:12;99099.38;;;4.52;92.31
57048;BME280;42934;54.294;18.598;2023-04-01T04:37:41;99105.81;;;4.42;93.76
57048;BME280;42934;54.294;18.598;2023-04-01T04:40:11;99106.34;;;4.51;93.45
57048;BME280;42934;54.294;18.598;2023-04-01T04:42:41;99108.03;;;4.52;93.53
57048;BME280;42934;54.294;18.598;2023-04-01T04:45:15;99109.75;;;4.53;92.79
57048;BME280;42934;54.294;18.598;2023-04-01T04:47:53;99113.13;;;4.55;93.05
57048;BME280;42934;54.294;18.598;2023-04-01T04:50:23;99111.53;;;4.51;92.73
57048;BME280;42934;54.294;18.598;2023-04-01T04:52:53;99113.13;;;4.55;92.60
57048;BME280;42934;54.294;18.598;2023-04-01T04:55:22;99112.38;;;4.52;93.41
57048;BME280;42934;54.294;18.598;2023-04-01T04:58:10;99119.13;;;4.58;92.80
57048;BME280;42934;54.294;18.598;2023-04-01T05:00:44;99113.50;;;4.45;93.53
57048;BME280;42934;54.294;18.598;2023-04-01T05:03:20;99123.63;;;4.52;93.65
57048;BME280;42934;54.294;18.598;2023-04-01T05:05:51;99127.13;;;4.51;93.97
57048;BME280;42934;54.294;18.598;2023-04-01T05:08:20;99124.50;;;4.53;94.23
57048;BME280;42934;54.294;18.598;2023-04-01T05:10:49;99132.84;;;4.63;93.27
57048;BME280;42934;54.294;18.598;2023-04-01T05:13:19;99133.72;;;4.62;93.46
57048;BME280;42934;54.294;18.598;2023-04-01T05:15:49;99127.63;;;4.63;93.46
57048;BME280;42934;54.294;18.598;2023-04-01T05:18:19;99137.00;;;4.68;93.27
57048;BME280;42934;54.294;18.598;2023-04-01T05:20:48;99138.03;;;4.63;93.90
57048;BME280;42934;54.294;18.598;2023-04-01T05:23:19;99141.47;;;4.63;93.83
57048;BME280;42934;54.294;18.598;2023-04-01T05:25:50;99135.28;;;4.67;93.79
57048;BME280;42934;54.294;18.598;2023-04-01T05:28:20;99138.97;;;4.60;94.09
57048;BME280;42934;54.294;18.598;2023-04-01T05:30:51;99143.94;;;4.68;94.11
57048;BME280;42934;54.294;18.598;2023-04-01T05:33:26;99147.38;;;4.68;94.12
57048;BME280;42934;54.294;18.598;2023-04-01T05:35:56;99140.63;;;4.63;94.84
57048;BME280;42934;54.294;18.598;2023-04-01T05:38:25;99146.72;;;4.62;95.04
57048;BME280;42934;54.294;18.598;2023-04-01T05:40:59;99143.16;;;4.64;95.21
57048;BME280;42934;54.294;18.598;2023-04-01T05:43:29;99148.66;;;4.55;95.50
57048;BME280;42934;54.294;18.598;2023-04-01T05:46:07;99158.34;;;4.50;95.63
57048;BME280;42934;54.294;18.598;2023-04-01T05:48:45;99151.28;;;4.55;95.40
57048;BME280;42934;54.294;18.598;2023-04-01T05:51:15;99157.94;;;4.64;94.94
57048;BME280;42934;54.294;18.598;2023-04-01T05:53:44;99156.25;;;4.63;94.60
57048;BME280;42934;54.294;18.598;2023-04-01T05:56:14;99166.25;;;4.47;95.91
57048;BME280;42934;54.294;18.598;2023-04-01T05:58:51;99167.63;;;4.59;95.04
57048;BME280;42934;54.294;18.598;2023-04-01T06:01:25;99174.88;;;4.49;95.85
57048;BME280;42934;54.294;18.598;2023-04-01T06:03:54;99171.66;;;4.41;96.16
57048;BME280;42934;54.294;18.598;2023-04-01T06:06:28;99179.09;;;4.53;96.19
57048;BME280;42934;54.294;18.598;2023-04-01T06:09:13;99174.88;;;4.49;96.18
57048;BME280;42934;54.294;18.598;2023-04-01T06:15:06;99181.84;;;4.47;96.22
57048;BME280;42934;54.294;18.598;2023-04-01T06:17:54;99186.09;;;4.49;96.36
57048;BME280;42934;54.294;18.598;2023-04-01T06:20:38;99192.09;;;4.53;96.03
57048;BME280;42934;54.294;18.598;2023-04-01T06:23:28;99191.06;;;4.57;95.52
57048;BME280;42934;54.294;18.598;2023-04-01T06:26:09;99196.50;;;4.49;95.63
57048;BME280;42934;54.294;18.598;2023-04-01T06:29:03;99199.91;;;4.51;94.85
57048;BME280;42934;54.294;18.598;2023-04-01T06:32:09;99203.97;;;4.32;96.87
57048;BME280;42934;54.294;18.598;2023-04-01T06:34:58;99200.38;;;4.36;96.87
57048;BME280;42934;54.294;18.598;2023-04-01T06:37:46;99208.03;;;4.41;96.34
57048;BME280;42934;54.294;18.598;2023-04-01T06:43:30;99205.78;;;4.30;96.81
57048;BME280;42934;54.294;18.598;2023-04-01T06:46:34;99219.38;;;4.38;97.09
57048;BME280;42934;54.294;18.598;2023-04-01T06:49:38;99217.44;;;4.45;96.05
57048;BME280;42934;54.294;18.598;2023-04-01T06:52:37;99221.81;;;4.44;96.89
57048;BME280;42934;54.294;18.598;2023-04-01T06:55:35;99225.28;;;4.43;96.14
57048;BME280;42934;54.294;18.598;2023-04-01T06:58:44;99223.53;;;4.16;96.52
57048;BME280;42934;54.294;18.598;2023-04-01T07:01:20;99241.16;;;4.34;96.95
57048;BME280;42934;54.294;18.598;2023-04-01T07:03:55;99235.16;;;4.32;96.22
57048;BME280;42934;54.294;18.598;2023-04-01T07:06:30;99239.56;;;4.30;96.96
57048;BME280;42934;54.294;18.598;2023-04-01T07:09:08;99247.00;;;4.41;96.46
57048;BME280;42934;54.294;18.598;2023-04-01T07:12:02;99255.84;;;4.35;95.92
57048;BME280;42934;54.294;18.598;2023-04-01T07:14:54;99252.28;;;4.39;95.93
57048;BME280;42934;54.294;18.598;2023-04-01T07:17:27;99252.13;;;4.44;95.50
57048;BME280;42934;54.294;18.598;2023-04-01T07:20:03;99258.34;;;4.38;96.01
57048;BME280;42934;54.294;18.598;2023-04-01T07:22:40;99260.78;;;4.44;96.06
57048;BME280;42934;54.294;18.598;2023-04-01T07:25:44;99258.09;;;4.47;95.81
57048;BME280;42934;54.294;18.598;2023-04-01T07:28:34;99274.63;;;4.45;95.44
57048;BME280;42934;54.294;18.598;2023-04-01T07:31:42;99269.56;;;4.40;95.99
57048;BME280;42934;54.294;18.598;2023-04-01T07:34:22;99273.94;;;4.38;96.16
57048;BME280;42934;54.294;18.598;2023-04-01T07:36:58;99272.97;;;4.42;96.47
57048;BME280;42934;54.294;18.598;2023-04-01T07:39:38;99265.94;;;4.46;96.51
57048;BME280;42934;54.294;18.598;2023-04-01T07:42:42;99280.34;;;4.56;95.81
57048;BME280;42934;54.294;18.598;2023-04-01T07:45:22;99273.63;;;4.49;95.73
57048;BME280;42934;54.294;18.598;2023-04-01T07:48:06;99283.28;;;4.45;96.42
57048;BME280;42934;54.294;18.598;2023-04-01T07:50:43;99278.78;;;4.50;96.61
57048;BME280;42934;54.294;18.598;2023-04-01T07:53:23;99291.53;;;4.58;95.33
57048;BME280;42934;54.294;18.598;2023-04-01T07:56:03;99287.66;;;4.43;96.19
57048;BME280;42934;54.294;18.598;2023-04-01T07:58:46;99285.22;;;4.39;95.76
57048;BME280;42934;54.294;18.598;2023-04-01T08:01:43;99298.03;;;4.43;95.78
57048;BME280;42934;54.294;18.598;2023-04-01T08:04:26;99301.50;;;4.44;95.43
57048;BME280;42934;54.294;18.598;2023-04-01T08:07:03;99297.31;;;4.38;95.42
57048;BME280;42934;54.294;18.598;2023-04-01T08:09:45;99295.63;;;4.37;95.18
57048;BME280;42934;54.294;18.598;2023-04-01T08:12:32;99300.91;;;4.34;95.74
57048;BME280;42934;54.294;18.598;2023-04-01T08:15:27;99314.94;;;4.28;96.17
57048;BME280;42934;54.294;18.598;2023-04-01T08:18:26;99316.66;;;4.29;96.82
57048;BME280;42934;54.294;18.598;2023-04-01T08:21:01;99317.16;;;4.42;96.06
57048;BME280;42934;54.294;18.598;2023-04-01T08:23:33;99322.25;;;4.45;96.01
57048;BME280;42934;54.294;18.598;2023-04-01T08:26:06;99326.53;;;4.46;95.24
57048;BME280;42934;54.294;18.598;2023-04-01T08:28:45;99320.56;;;4.44;95.09
57048;BME280;42934;54.294;18.598;2023-04-01T08:31:22;99330.25;;;4.38;95.00
57048;BME280;42934;54.294;18.598;2023-04-01T08:33:54;99338.28;;;4.30;95.29
57048;BME280;42934;54.294;18.598;2023-04-01T08:36:28;99335.72;;;4.28;95.38
57048;BME280;42934;54.294;18.598;2023-04-01T08:39:12;99337.22;;;4.37;95.42
57048;BME280;42934;54.294;18.598;2023-04-01T08:42:13;99347.69;;;4.34;94.97
57048;BME280;42934;54.294;18.598;2023-04-01T08:51:32;99351.22;;;4.31;95.11
57048;BME280;42934;54.294;18.598;2023-04-01T08:54:33;99354.94;;;4.23;95.18
57048;BME280;42934;54.294;18.598;2023-04-01T08:57:12;99354.84;;;4.26;94.95
57048;BME280;42934;54.294;18.598;2023-04-01T09:00:15;99364.53;;;4.21;95.19
57048;BME280;42934;54.294;18.598;2023-04-01T09:03:23;99370.66;;;4.18;95.57
57048;BME280;42934;54.294;18.598;2023-04-01T09:06:32;99373.38;;;4.14;96.07
57048;BME280;42934;54.294;18.598;2023-04-01T09:09:20;99373.09;;;4.24;95.73
57048;BME280;42934;54.294;18.598;2023-04-01T09:18:21;99376.66;;;4.20;96.07
57048;BME280;42934;54.294;18.598;2023-04-01T09:21:16;99381.44;;;4.36;95.94
57048;BME280;42934;54.294;18.598;2023-04-01T09:24:06;99390.03;;;4.38;94.68
57048;BME280;42934;54.294;18.598;2023-04-01T09:26:49;99392.69;;;4.36;95.10
57048;BME280;42934;54.294;18.598;2023-04-01T09:32:48;99394.81;;;4.22;95.39
57048;BME280;42934;54.294;18.598;2023-04-01T09:35:36;99398.94;;;4.29;95.43
57048;BME280;42934;54.294;18.598;2023-04-01T09:38:20;99394.56;;;4.31;95.74
57048;BME280;42934;54.294;18.598;2023-04-01T09:40:55;99403.34;;;4.27;95.55
57048;BME280;42934;54.294;18.598;2023-04-01T09:43:54;99406.09;;;4.21;95.25
57048;BME280;42934;54.294;18.598;2023-04-01T09:46:34;99412.31;;;4.15;95.63
57048;BME280;42934;54.294;18.598;2023-04-01T09:49:36;99413.47;;;4.36;95.53
57048;BME280;42934;54.294;18.598;2023-04-01T09:52:24;99422.19;;;4.33;94.98
57048;BME280;42934;54.294;18.598;2023-04-01T09:55:21;99423.97;;;4.31;94.96
57048;BME280;42934;54.294;18.598;2023-04-01T10:01:39;99423.97;;;4.31;94.78
57048;BME280;42934;54.294;18.598;2023-04-01T10:04:55;99438.63;;;4.34;94.83
57048;BME280;42934;54.294;18.598;2023-04-01T10:08:12;99433.63;;;4.26;94.84
57048;BME280;42934;54.294;18.598;2023-04-01T10:11:15;99442.38;;;4.24;94.67
57048;BME280;42934;54.294;18.598;2023-04-01T10:20:40;99448.22;;;4.32;94.50
57048;BME280;42934;54.294;18.598;2023-04-01T10:23:27;99459.69;;;4.23;94.40
57048;BME280;42934;54.294;18.598;2023-04-01T10:26:53;99459.16;;;4.12;94.08
57048;BME280;42934;54.294;18.598;2023-04-01T10:30:16;99463.53;;;4.10;94.22
57048;BME280;42934;54.294;18.598;2023-04-01T10:33:24;99463.38;;;4.15;94.06
57048;BME280;42934;54.294;18.598;2023-04-01T10:36:29;99472.25;;;4.07;94.11
57048;BME280;42934;54.294;18.598;2023-04-01T10:46:21;99486.06;;;4.08;95.36
57048;BME280;42934;54.294;18.598;2023-04-01T10:52:24;99486.38;;;3.96;95.49
57048;BME280;42934;54.294;18.598;2023-04-01T11:02:57;99495.84;;;3.98;94.19
57048;BME280;42934;54.294;18.598;2023-04-01T11:09:43;99503.63;;;3.98;94.11
57048;BME280;42934;54.294;18.598;2023-04-01T11:15:47;99499.13;;;4.06;94.35
57048;BME280;42934;54.294;18.598;2023-04-01T11:19:01;99514.94;;;3.97;94.27
57048;BME280;42934;54.294;18.598;2023-04-01T11:21:59;99521.13;;;3.90;94.82
57048;BME280;42934;54.294;18.598;2023-04-01T11:25:18;99522.66;;;4.00;94.45
57048;BME280;42934;54.294;18.598;2023-04-01T11:28:26;99521.06;;;3.93;95.06
57048;BME280;42934;54.294;18.598;2023-04-01T11:31:20;99523.72;;;3.90;94.88
57048;BME280;42934;54.294;18.598;2023-04-01T11:33:57;99533.09;;;3.97;94.51
57048;BME280;42934;54.294;18.598;2023-04-01T11:36:40;99525.25;;;3.99;93.88
57048;BME280;42934;54.294;18.598;2023-04-01T11:39:24;99523.72;;;3.90;93.89
57048;BME280;42934;54.294;18.598;2023-04-01T11:42:14;99528.00;;;3.94;93.58
57048;BME280;42934;54.294;18.598;2023-04-01T11:45:19;99528.09;;;3.90;93.54
57048;BME280;42934;54.294;18.598;2023-04-01T11:48:08;99529.13;;;3.82;94.19
57048;BME280;42934;54.294;18.598;2023-04-01T11:50:59;99540.09;;;3.94;93.82
57048;BME280;42934;54.294;18.598;2023-04-01T11:53:44;99534.50;;;3.73;94.03
57048;BME280;42934;54.294;18.598;2023-04-01T11:56:28;99535.09;;;3.86;94.65
57048;BME280;42934;54.294;18.598;2023-04-01T11:59:21;99534.50;;;3.73;94.08
57048;BME280;42934;54.294;18.598;2023-04-01T12:02:00;99536.94;;;3.79;94.29
57048;BME280;42934;54.294;18.598;2023-04-01T12:08:05;99520.03;;;3.63;93.99
57048;BME280;42934;54.294;18.598;2023-04-01T12:10:40;99543.06;;;3.78;94.00
57048;BME280;42934;54.294;18.598;2023-04-01T12:13:31;99552.66;;;3.73;94.35
57048;BME280;42934;54.294;18.598;2023-04-01T12:16:23;99545.66;;;3.78;93.65
57048;BME280;42934;54.294;18.598;2023-04-01T12:19:01;99558.53;;;3.83;93.42
57048;BME280;42934;54.294;18.598;2023-04-01T12:21:36;99550.13;;;3.72;93.73
57048;BME280;42934;54.294;18.598;2023-04-01T12:24:33;99567.25;;;3.79;93.76
57048;BME280;42934;54.294;18.598;2023-04-01T12:30:22;99568.22;;;3.75;93.55
57048;BME280;42934;54.294;18.598;2023-04-01T12:33:10;99571.72;;;3.74;94.06
57048;BME280;42934;54.294;18.598;2023-04-01T12:35:55;99569.97;;;3.74;93.75
57048;BME280;42934;54.294;18.598;2023-04-01T12:38:36;99575.88;;;3.81;93.83
57048;BME280;42934;54.294;18.598;2023-04-01T12:41:08;99580.91;;;3.89;93.22
57048;BME280;42934;54.294;18.598;2023-04-01T12:44:02;99587.69;;;3.55;93.62
57048;BME280;42934;54.294;18.598;2023-04-01T12:46:54;99585.66;;;3.70;93.65
57048;BME280;42934;54.294;18.598;2023-04-01T12:49:45;99591.72;;;3.69;93.66
57048;BME280;42934;54.294;18.598;2023-04-01T12:52:25;99610.75;;;3.71;93.53
57048;BME280;42934;54.294;18.598;2023-04-01T12:55:33;99610.75;;;3.71;92.67
57048;BME280;42934;54.294;18.598;2023-04-01T13:01:30;99618.47;;;3.74;93.20
57048;BME280;42934;54.294;18.598;2023-04-01T13:04:40;99623.94;;;3.58;93.73
57048;BME280;42934;54.294;18.598;2023-04-01T13:07:48;99637.69;;;3.65;93.18
57048;BME280;42934;54.294;18.598;2023-04-01T13:10:34;99627.09;;;3.74;93.18
57048;BME280;42934;54.294;18.598;2023-04-01T13:13:22;99639.31;;;3.69;93.15
57048;BME280;42934;54.294;18.598;2023-04-01T13:16:00;99634.44;;;3.54;93.02
57048;BME280;42934;54.294;18.598;2023-04-01T13:18:37;99643.66;;;3.67;93.63
57048;BME280;42934;54.294;18.598;2023-04-01T13:21:13;99642.50;;;3.82;93.17
57048;BME280;42934;54.294;18.598;2023-04-01T13:23:55;99652.38;;;3.64;92.81
57048;BME280;42934;54.294;18.598;2023-04-01T13:26:29;99653.13;;;3.70;92.79
57048;BME280;42934;54.294;18.598;2023-04-01T13:29:07;99643.66;;;3.67;92.30
57048;BME280;42934;54.294;18.598;2023-04-01T13:31:50;99659.50;;;3.55;92.48
57048;BME280;42934;54.294;18.598;2023-04-01T13:34:37;99657.09;;;3.44;93.00
57048;BME280;42934;54.294;18.598;2023-04-01T13:37:23;99650.81;;;3.57;92.40
57048;BME280;42934;54.294;18.598;2023-04-01T13:40:11;99662.94;;;3.55;92.66
57048;BME280;42934;54.294;18.598;2023-04-01T13:42:47;99664.09;;;3.42;93.38
57048;BME280;42934;54.294;18.598;2023-04-01T13:45:21;99665.59;;;3.52;93.90
57048;BME280;42934;54.294;18.598;2023-04-01T13:51:29;99671.81;;;3.44;93.87
57048;BME280;42934;54.294;18.598;2023-04-01T13:57:22;99676.22;;;3.40;93.54
57048;BME280;42934;54.294;18.598;2023-04-01T14:00:03;99687.31;;;3.48;92.64
57048;BME280;42934;54.294;18.598;2023-04-01T14:02:56;99683.81;;;3.49;92.73
57048;BME280;42934;54.294;18.598;2023-04-01T14:05:50;99699.28;;;3.55;92.63
57048;BME280;42934;54.294;18.598;2023-04-01T14:08:34;99694.31;;;3.45;92.99
57048;BME280;42934;54.294;18.598;2023-04-01T14:11:16;99698.91;;;3.29;93.75
57048;BME280;42934;54.294;18.598;2023-04-01T14:13:57;99705.50;;;3.47;93.35
57048;BME280;42934;54.294;18.598;2023-04-01T14:19:52;99703.88;;;3.41;93.32
57048;BME280;42934;54.294;18.598;2023-04-01T14:22:33;99715.22;;;3.37;93.16
57048;BME280;42934;54.294;18.598;2023-04-01T14:25:25;99714.59;;;3.23;93.14
57048;BME280;42934;54.294;18.598;2023-04-01T14:28:12;99704.78;;;3.40;93.31
57048;BME280;42934;54.294;18.598;2023-04-01T14:31:00;99715.19;;;3.38;92.86
57048;BME280;42934;54.294;18.598;2023-04-01T14:33:46;99714.25;;;3.41;92.58
57048;BME280;42934;54.294;18.598;2023-04-01T14:36:33;99717.06;;;3.29;93.26
57048;BME280;42934;54.294;18.598;2023-04-01T14:39:18;99724.84;;;3.30;92.68
57048;BME280;42934;54.294;18.598;2023-04-01T14:41:56;99723.16;;;3.26;93.23
57048;BME280;42934;54.294;18.598;2023-04-01T14:45:12;99732.69;;;3.26;92.71
57048;BME280;42934;54.294;18.598;2023-04-01T14:47:51;99739.63;;;3.27;93.42
57048;BME280;42934;54.294;18.598;2023-04-01T14:50:26;99736.13;;;3.26;93.46
57048;BME280;42934;54.294;18.598;2023-04-01T14:52:59;99743.22;;;3.18;94.22
57048;BME280;42934;54.294;18.598;2023-04-01T14:55:32;99750.69;;;3.36;93.26
57048;BME280;42934;54.294;18.598;2023-04-01T14:58:11;99742.72;;;3.46;92.87
57048;BME280;42934;54.294;18.598;2023-04-01T15:00:58;99741.47;;;3.18;93.10
57048;BME280;42934;54.294;18.598;2023-04-01T15:03:33;99750.97;;;3.19;93.25
57048;BME280;42934;54.294;18.598;2023-04-01T15:06:28;99755.25;;;3.24;92.86
57048;BME280;42934;54.294;18.598;2023-04-01T15:09:11;99759.66;;;3.17;93.03
57048;BME280;42934;54.294;18.598;2023-04-01T15:11:55;99757.84;;;3.21;93.30
57048;BME280;42934;54.294;18.598;2023-04-01T15:14:39;99765.53;;;3.28;92.90
57048;BME280;42934;54.294;18.598;2023-04-01T15:17:28;99735.78;;;2.98;93.09
57048;BME280;42934;54.294;18.598;2023-04-01T15:20:18;99775.84;;;3.31;93.21
57048;BME280;42934;54.294;18.598;2023-04-01T15:23:03;99789.09;;;3.14;92.97
57048;BME280;42934;54.294;18.598;2023-04-01T15:25:51;99795.06;;;3.21;93.14
57048;BME280;42934;54.294;18.598;2023-04-01T15:28:27;99792.25;;;3.32;92.32
57048;BME280;42934;54.294;18.598;2023-04-01T15:31:04;99800.03;;;3.33;91.72